sensor_id;sensor_type;location;lat;lon;timestamp;P1;durP1;ratioP1;P2;durP2;ratioP2
11090;SDS011;5599;52.210;21.046;2023-01-09T00:01:31;35.07;;;25.53;;
11090;SDS011;5599;52.210;21.046;2023-01-09T00:04:04;38.33;;;27.20;;
11090;SDS011;5599;52.210;21.046;2023-01-09T00:06:34;38.20;;;27.37;;
11090;SDS011;5599;52.210;21.046;2023-01-09T00:09:06;35.67;;;26.33;;
11090;SDS011;5599;52.210;21.046;2023-01-09T00:11:35;35.60;;;26.10;;
11090;SDS011;5599;52.210;21.046;2023-01-09T00:14:04;39.93;;;25.93;;
11090;SDS011;5599;52.210;21.046;2023-01-09T00:16:38;34.20;;;25.47;;
11090;SDS011;5599;52.210;21.046;2023-01-09T00:19:07;36.67;;;27.33;;
11090;SDS011;5599;52.210;21.046;2023-01-09T00:21:36;37.87;;;25.70;;
11090;SDS011;5599;52.210;21.046;2023-01-09T00:24:06;38.47;;;26.03;;
11090;SDS011;5599;52.210;21.046;2023-01-09T00:26:35;40.83;;;28.17;;
11090;SDS011;5599;52.210;21.046;2023-01-09T00:29:08;36.47;;;26.27;;
11090;SDS011;5599;52.210;21.046;2023-01-09T00:31:39;37.33;;;26.80;;
11090;SDS011;5599;52.210;21.046;2023-01-09T00:34:08;36.47;;;26.13;;
11090;SDS011;5599;52.210;21.046;2023-01-09T00:36:38;34.73;;;25.63;;
11090;SDS011;5599;52.210;21.046;2023-01-09T00:39:07;33.27;;;25.47;;
11090;SDS011;5599;52.210;21.046;2023-01-09T00:41:38;37.83;;;26.43;;
11090;SDS011;5599;52.210;21.046;2023-01-09T00:44:09;34.20;;;25.73;;
11090;SDS011;5599;52.210;21.046;2023-01-09T00:46:44;32.80;;;24.90;;
11090;SDS011;5599;52.210;21.046;2023-01-09T00:49:17;31.47;;;23.90;;
11090;SDS011;5599;52.210;21.046;2023-01-09T00:51:47;35.70;;;25.87;;
11090;SDS011;5599;52.210;21.046;2023-01-09T00:54:17;34.40;;;25.40;;
11090;SDS011;5599;52.210;21.046;2023-01-09T00:56:47;33.77;;;25.23;;
11090;SDS011;5599;52.210;21.046;2023-01-09T00:59:17;30.73;;;23.93;;
11090;SDS011;5599;52.210;21.046;2023-01-09T01:01:48;31.30;;;23.57;;
11090;SDS011;5599;52.210;21.046;2023-01-09T01:04:17;33.17;;;25.60;;
11090;SDS011;5599;52.210;21.046;2023-01-09T01:07:04;32.30;;;25.23;;
11090;SDS011;5599;52.210;21.046;2023-01-09T01:09:50;32.60;;;24.67;;
11090;SDS011;5599;52.210;21.046;2023-01-09T01:12:20;33.90;;;25.47;;
11090;SDS011;5599;52.210;21.046;2023-01-09T01:14:49;31.73;;;24.17;;
11090;SDS011;5599;52.210;21.046;2023-01-09T01:17:21;31.63;;;23.67;;
11090;SDS011;5599;52.210;21.046;2023-01-09T01:19:50;30.37;;;24.07;;
11090;SDS011;5599;52.210;21.046;2023-01-09T01:22:20;33.47;;;25.57;;
11090;SDS011;5599;52.210;21.046;2023-01-09T01:24:49;30.57;;;24.90;;
11090;SDS011;5599;52.210;21.046;2023-01-09T01:27:18;34.67;;;25.07;;
11090;SDS011;5599;52.210;21.046;2023-01-09T01:29:47;29.17;;;24.13;;
11090;SDS011;5599;52.210;21.046;2023-01-09T01:32:17;30.63;;;23.53;;
11090;SDS011;5599;52.210;21.046;2023-01-09T01:34:48;35.23;;;24.70;;
11090;SDS011;5599;52.210;21.046;2023-01-09T01:37:17;34.83;;;25.13;;
11090;SDS011;5599;52.210;21.046;2023-01-09T01:39:48;30.53;;;23.80;;
11090;SDS011;5599;52.210;21.046;2023-01-09T01:42:17;34.33;;;25.00;;
11090;SDS011;5599;52.210;21.046;2023-01-09T01:45:04;33.67;;;25.27;;
11090;SDS011;5599;52.210;21.046;2023-01-09T01:47:40;33.67;;;26.63;;
11090;SDS011;5599;52.210;21.046;2023-01-09T01:50:18;32.90;;;25.93;;
11090;SDS011;5599;52.210;21.046;2023-01-09T01:52:53;32.83;;;25.63;;
11090;SDS011;5599;52.210;21.046;2023-01-09T01:55:27;33.97;;;25.43;;
11090;SDS011;5599;52.210;21.046;2023-01-09T01:57:57;31.70;;;24.93;;
11090;SDS011;5599;52.210;21.046;2023-01-09T02:00:30;34.67;;;25.03;;
11090;SDS011;5599;52.210;21.046;2023-01-09T02:03:02;34.93;;;24.73;;
11090;SDS011;5599;52.210;21.046;2023-01-09T02:05:35;32.40;;;25.37;;
11090;SDS011;5599;52.210;21.046;2023-01-09T02:08:06;31.57;;;24.03;;
11090;SDS011;5599;52.210;21.046;2023-01-09T02:10:36;32.43;;;24.70;;
11090;SDS011;5599;52.210;21.046;2023-01-09T02:13:06;30.13;;;24.73;;
11090;SDS011;5599;52.210;21.046;2023-01-09T02:15:40;35.43;;;25.73;;
11090;SDS011;5599;52.210;21.046;2023-01-09T02:18:30;31.87;;;25.77;;
11090;SDS011;5599;52.210;21.046;2023-01-09T02:21:11;33.40;;;26.33;;
11090;SDS011;5599;52.210;21.046;2023-01-09T02:27:12;31.77;;;24.10;;
11090;SDS011;5599;52.210;21.046;2023-01-09T02:32:53;30.43;;;24.07;;
11090;SDS011;5599;52.210;21.046;2023-01-09T02:35:31;31.60;;;25.20;;
11090;SDS011;5599;52.210;21.046;2023-01-09T02:38:19;31.53;;;24.20;;
11090;SDS011;5599;52.210;21.046;2023-01-09T02:40:58;30.57;;;24.60;;
11090;SDS011;5599;52.210;21.046;2023-01-09T02:43:30;30.97;;;24.57;;
11090;SDS011;5599;52.210;21.046;2023-01-09T02:46:01;28.47;;;23.53;;
11090;SDS011;5599;52.210;21.046;2023-01-09T02:48:30;30.03;;;23.57;;
11090;SDS011;5599;52.210;21.046;2023-01-09T02:51:02;30.93;;;23.83;;
11090;SDS011;5599;52.210;21.046;2023-01-09T02:53:43;32.27;;;24.57;;
11090;SDS011;5599;52.210;21.046;2023-01-09T02:56:31;28.63;;;22.53;;
11090;SDS011;5599;52.210;21.046;2023-01-09T02:59:23;28.07;;;22.60;;
11090;SDS011;5599;52.210;21.046;2023-01-09T03:02:15;27.40;;;22.77;;
11090;SDS011;5599;52.210;21.046;2023-01-09T03:05:02;30.57;;;22.50;;
11090;SDS011;5599;52.210;21.046;2023-01-09T03:07:40;26.73;;;22.63;;
11090;SDS011;5599;52.210;21.046;2023-01-09T03:10:14;28.27;;;21.40;;
11090;SDS011;5599;52.210;21.046;2023-01-09T03:12:49;27.53;;;21.67;;
11090;SDS011;5599;52.210;21.046;2023-01-09T03:15:20;25.77;;;20.53;;
11090;SDS011;5599;52.210;21.046;2023-01-09T03:17:54;26.83;;;21.13;;
11090;SDS011;5599;52.210;21.046;2023-01-09T03:20:25;25.87;;;21.20;;
11090;SDS011;5599;52.210;21.046;2023-01-09T03:22:55;27.23;;;21.93;;
11090;SDS011;5599;52.210;21.046;2023-01-09T03:25:25;27.00;;;21.73;;
11090;SDS011;5599;52.210;21.046;2023-01-09T03:27:57;25.83;;;21.03;;
11090;SDS011;5599;52.210;21.046;2023-01-09T03:30:28;29.47;;;20.90;;
11090;SDS011;5599;52.210;21.046;2023-01-09T03:33:00;26.73;;;22.27;;
11090;SDS011;5599;52.210;21.046;2023-01-09T03:35:29;24.87;;;20.87;;
11090;SDS011;5599;52.210;21.046;2023-01-09T03:37:58;24.90;;;21.03;;
11090;SDS011;5599;52.210;21.046;2023-01-09T03:40:27;28.87;;;20.77;;
11090;SDS011;5599;52.210;21.046;2023-01-09T03:42:57;24.17;;;20.93;;
11090;SDS011;5599;52.210;21.046;2023-01-09T03:45:26;27.83;;;22.20;;
11090;SDS011;5599;52.210;21.046;2023-01-09T03:47:55;28.60;;;22.27;;
11090;SDS011;5599;52.210;21.046;2023-01-09T03:50:26;29.60;;;23.83;;
11090;SDS011;5599;52.210;21.046;2023-01-09T03:52:55;28.57;;;20.90;;
11090;SDS011;5599;52.210;21.046;2023-01-09T03:55:25;26.83;;;22.23;;
11090;SDS011;5599;52.210;21.046;2023-01-09T03:57:54;28.33;;;22.33;;
11090;SDS011;5599;52.210;21.046;2023-01-09T04:00:23;28.03;;;22.73;;
11090;SDS011;5599;52.210;21.046;2023-01-09T04:02:52;29.57;;;23.10;;
11090;SDS011;5599;52.210;21.046;2023-01-09T04:05:21;31.37;;;23.17;;
11090;SDS011;5599;52.210;21.046;2023-01-09T04:07:52;27.53;;;22.23;;
11090;SDS011;5599;52.210;21.046;2023-01-09T04:10:21;30.93;;;23.77;;
11090;SDS011;5599;52.210;21.046;2023-01-09T04:12:50;32.27;;;24.60;;
11090;SDS011;5599;52.210;21.046;2023-01-09T04:15:19;32.93;;;26.33;;
11090;SDS011;5599;52.210;21.046;2023-01-09T04:17:48;32.90;;;25.20;;
11090;SDS011;5599;52.210;21.046;2023-01-09T04:20:17;33.00;;;25.43;;
11090;SDS011;5599;52.210;21.046;2023-01-09T04:22:47;30.53;;;25.03;;
11090;SDS011;5599;52.210;21.046;2023-01-09T04:25:17;34.57;;;24.50;;
11090;SDS011;5599;52.210;21.046;2023-01-09T04:27:48;29.50;;;24.00;;
11090;SDS011;5599;52.210;21.046;2023-01-09T04:30:17;34.30;;;26.00;;
11090;SDS011;5599;52.210;21.046;2023-01-09T04:32:47;29.53;;;23.50;;
11090;SDS011;5599;52.210;21.046;2023-01-09T04:35:16;28.73;;;24.10;;
11090;SDS011;5599;52.210;21.046;2023-01-09T04:37:45;27.53;;;23.50;;
11090;SDS011;5599;52.210;21.046;2023-01-09T04:40:15;29.93;;;22.90;;
11090;SDS011;5599;52.210;21.046;2023-01-09T04:42:47;26.97;;;21.50;;
11090;SDS011;5599;52.210;21.046;2023-01-09T04:45:16;27.37;;;22.80;;
11090;SDS011;5599;52.210;21.046;2023-01-09T04:47:45;29.93;;;22.80;;
11090;SDS011;5599;52.210;21.046;2023-01-09T04:50:15;30.70;;;23.90;;
11090;SDS011;5599;52.210;21.046;2023-01-09T04:52:44;27.17;;;21.93;;
11090;SDS011;5599;52.210;21.046;2023-01-09T04:55:13;26.57;;;21.93;;
11090;SDS011;5599;52.210;21.046;2023-01-09T04:57:42;29.03;;;23.20;;
11090;SDS011;5599;52.210;21.046;2023-01-09T05:00:13;27.43;;;20.87;;
11090;SDS011;5599;52.210;21.046;2023-01-09T05:02:43;27.17;;;21.50;;
11090;SDS011;5599;52.210;21.046;2023-01-09T05:05:12;27.57;;;21.37;;
11090;SDS011;5599;52.210;21.046;2023-01-09T05:07:41;26.63;;;21.97;;
11090;SDS011;5599;52.210;21.046;2023-01-09T05:10:10;27.67;;;22.33;;
11090;SDS011;5599;52.210;21.046;2023-01-09T05:12:40;27.03;;;22.10;;
11090;SDS011;5599;52.210;21.046;2023-01-09T05:15:09;27.03;;;21.37;;
11090;SDS011;5599;52.210;21.046;2023-01-09T05:17:40;25.27;;;21.20;;
11090;SDS011;5599;52.210;21.046;2023-01-09T05:20:09;25.07;;;20.77;;
11090;SDS011;5599;52.210;21.046;2023-01-09T05:22:38;23.93;;;20.50;;
11090;SDS011;5599;52.210;21.046;2023-01-09T05:25:08;23.93;;;20.63;;
11090;SDS011;5599;52.210;21.046;2023-01-09T05:27:37;24.23;;;20.20;;
11090;SDS011;5599;52.210;21.046;2023-01-09T05:30:07;26.87;;;21.63;;
11090;SDS011;5599;52.210;21.046;2023-01-09T05:32:40;24.47;;;20.53;;
11090;SDS011;5599;52.210;21.046;2023-01-09T05:35:10;25.30;;;20.10;;
11090;SDS011;5599;52.210;21.046;2023-01-09T05:37:39;25.80;;;22.50;;
11090;SDS011;5599;52.210;21.046;2023-01-09T05:40:08;24.93;;;21.03;;
11090;SDS011;5599;52.210;21.046;2023-01-09T05:42:38;26.47;;;21.23;;
11090;SDS011;5599;52.210;21.046;2023-01-09T05:45:09;25.50;;;20.27;;
11090;SDS011;5599;52.210;21.046;2023-01-09T05:47:41;23.60;;;20.17;;
11090;SDS011;5599;52.210;21.046;2023-01-09T05:50:11;22.67;;;19.20;;
11090;SDS011;5599;52.210;21.046;2023-01-09T05:52:41;24.07;;;20.33;;
11090;SDS011;5599;52.210;21.046;2023-01-09T05:55:10;23.87;;;21.23;;
11090;SDS011;5599;52.210;21.046;2023-01-09T05:57:40;22.90;;;19.70;;
11090;SDS011;5599;52.210;21.046;2023-01-09T06:00:09;23.53;;;19.90;;
11090;SDS011;5599;52.210;21.046;2023-01-09T06:02:41;24.03;;;20.17;;
11090;SDS011;5599;52.210;21.046;2023-01-09T06:05:10;24.23;;;20.10;;
11090;SDS011;5599;52.210;21.046;2023-01-09T06:07:40;24.60;;;20.37;;
11090;SDS011;5599;52.210;21.046;2023-01-09T06:10:10;23.30;;;19.93;;
11090;SDS011;5599;52.210;21.046;2023-01-09T06:12:40;24.20;;;19.03;;
11090;SDS011;5599;52.210;21.046;2023-01-09T06:15:13;24.33;;;19.57;;
11090;SDS011;5599;52.210;21.046;2023-01-09T06:17:44;21.30;;;18.93;;
11090;SDS011;5599;52.210;21.046;2023-01-09T06:20:14;24.77;;;18.63;;
11090;SDS011;5599;52.210;21.046;2023-01-09T06:22:43;20.97;;;18.43;;
11090;SDS011;5599;52.210;21.046;2023-01-09T06:25:13;25.07;;;21.80;;
11090;SDS011;5599;52.210;21.046;2023-01-09T06:27:42;23.30;;;19.43;;
11090;SDS011;5599;52.210;21.046;2023-01-09T06:30:12;20.83;;;18.27;;
11090;SDS011;5599;52.210;21.046;2023-01-09T06:32:41;23.10;;;19.00;;
11090;SDS011;5599;52.210;21.046;2023-01-09T06:35:12;21.80;;;17.40;;
11090;SDS011;5599;52.210;21.046;2023-01-09T06:37:46;22.50;;;18.20;;
11090;SDS011;5599;52.210;21.046;2023-01-09T06:40:16;26.87;;;20.67;;
11090;SDS011;5599;52.210;21.046;2023-01-09T06:42:47;23.27;;;18.40;;
11090;SDS011;5599;52.210;21.046;2023-01-09T06:45:17;23.13;;;18.90;;
11090;SDS011;5599;52.210;21.046;2023-01-09T06:47:46;21.37;;;18.20;;
11090;SDS011;5599;52.210;21.046;2023-01-09T06:50:17;21.90;;;18.30;;
11090;SDS011;5599;52.210;21.046;2023-01-09T06:52:47;22.10;;;18.37;;
11090;SDS011;5599;52.210;21.046;2023-01-09T06:55:16;21.40;;;18.50;;
11090;SDS011;5599;52.210;21.046;2023-01-09T06:57:45;23.43;;;18.97;;
11090;SDS011;5599;52.210;21.046;2023-01-09T07:00:15;19.97;;;17.83;;
11090;SDS011;5599;52.210;21.046;2023-01-09T07:02:45;21.10;;;18.13;;
11090;SDS011;5599;52.210;21.046;2023-01-09T07:05:14;21.87;;;18.23;;
11090;SDS011;5599;52.210;21.046;2023-01-09T07:07:45;19.40;;;17.00;;
11090;SDS011;5599;52.210;21.046;2023-01-09T07:10:15;21.70;;;17.97;;
11090;SDS011;5599;52.210;21.046;2023-01-09T07:12:44;22.63;;;17.70;;
11090;SDS011;5599;52.210;21.046;2023-01-09T07:15:13;21.13;;;17.40;;
11090;SDS011;5599;52.210;21.046;2023-01-09T07:17:43;19.50;;;17.03;;
11090;SDS011;5599;52.210;21.046;2023-01-09T07:20:13;22.23;;;18.13;;
11090;SDS011;5599;52.210;21.046;2023-01-09T07:22:42;19.77;;;17.13;;
11090;SDS011;5599;52.210;21.046;2023-01-09T07:25:14;21.07;;;17.00;;
11090;SDS011;5599;52.210;21.046;2023-01-09T07:27:43;19.37;;;17.27;;
11090;SDS011;5599;52.210;21.046;2023-01-09T07:30:13;19.70;;;16.93;;
11090;SDS011;5599;52.210;21.046;2023-01-09T07:32:43;20.77;;;17.23;;
11090;SDS011;5599;52.210;21.046;2023-01-09T07:35:13;20.97;;;17.07;;
11090;SDS011;5599;52.210;21.046;2023-01-09T07:37:43;20.63;;;17.60;;
11090;SDS011;5599;52.210;21.046;2023-01-09T07:40:15;19.80;;;17.53;;
11090;SDS011;5599;52.210;21.046;2023-01-09T07:42:44;18.70;;;16.70;;
11090;SDS011;5599;52.210;21.046;2023-01-09T07:45:13;22.37;;;17.50;;
11090;SDS011;5599;52.210;21.046;2023-01-09T07:47:43;19.60;;;16.23;;
11090;SDS011;5599;52.210;21.046;2023-01-09T07:50:12;19.60;;;16.80;;
11090;SDS011;5599;52.210;21.046;2023-01-09T07:52:43;18.90;;;16.93;;
11090;SDS011;5599;52.210;21.046;2023-01-09T07:55:14;20.50;;;17.73;;
11090;SDS011;5599;52.210;21.046;2023-01-09T07:57:46;18.93;;;16.93;;
11090;SDS011;5599;52.210;21.046;2023-01-09T08:00:16;18.60;;;15.90;;
11090;SDS011;5599;52.210;21.046;2023-01-09T08:02:49;18.97;;;16.00;;
11090;SDS011;5599;52.210;21.046;2023-01-09T08:05:20;18.03;;;15.70;;
11090;SDS011;5599;52.210;21.046;2023-01-09T08:07:49;17.87;;;15.97;;
11090;SDS011;5599;52.210;21.046;2023-01-09T08:10:20;18.10;;;15.67;;
11090;SDS011;5599;52.210;21.046;2023-01-09T08:12:50;17.77;;;15.53;;
11090;SDS011;5599;52.210;21.046;2023-01-09T08:15:19;19.87;;;15.23;;
11090;SDS011;5599;52.210;21.046;2023-01-09T08:17:48;18.47;;;15.50;;
11090;SDS011;5599;52.210;21.046;2023-01-09T08:20:17;16.30;;;14.50;;
11090;SDS011;5599;52.210;21.046;2023-01-09T08:22:47;17.43;;;14.93;;
11090;SDS011;5599;52.210;21.046;2023-01-09T08:25:16;16.77;;;14.90;;
11090;SDS011;5599;52.210;21.046;2023-01-09T08:27:47;17.97;;;14.27;;
11090;SDS011;5599;52.210;21.046;2023-01-09T08:30:16;18.87;;;15.37;;
11090;SDS011;5599;52.210;21.046;2023-01-09T08:32:49;16.53;;;14.57;;
11090;SDS011;5599;52.210;21.046;2023-01-09T08:35:20;17.00;;;15.00;;
11090;SDS011;5599;52.210;21.046;2023-01-09T08:37:49;17.90;;;15.00;;
11090;SDS011;5599;52.210;21.046;2023-01-09T08:40:18;21.47;;;14.97;;
11090;SDS011;5599;52.210;21.046;2023-01-09T08:42:49;16.83;;;14.97;;
11090;SDS011;5599;52.210;21.046;2023-01-09T08:45:35;16.87;;;15.07;;
11090;SDS011;5599;52.210;21.046;2023-01-09T08:48:22;20.23;;;15.07;;
11090;SDS011;5599;52.210;21.046;2023-01-09T08:50:51;17.10;;;15.23;;
11090;SDS011;5599;52.210;21.046;2023-01-09T08:53:20;17.43;;;15.60;;
11090;SDS011;5599;52.210;21.046;2023-01-09T08:55:49;17.17;;;14.37;;
11090;SDS011;5599;52.210;21.046;2023-01-09T08:58:20;17.97;;;14.83;;
11090;SDS011;5599;52.210;21.046;2023-01-09T09:00:49;17.83;;;15.73;;
11090;SDS011;5599;52.210;21.046;2023-01-09T09:03:19;18.00;;;16.10;;
11090;SDS011;5599;52.210;21.046;2023-01-09T09:05:49;17.70;;;15.43;;
11090;SDS011;5599;52.210;21.046;2023-01-09T09:08:18;17.93;;;15.17;;
11090;SDS011;5599;52.210;21.046;2023-01-09T09:10:49;18.83;;;16.00;;
11090;SDS011;5599;52.210;21.046;2023-01-09T09:13:19;21.27;;;16.07;;
11090;SDS011;5599;52.210;21.046;2023-01-09T09:15:49;18.03;;;16.13;;
11090;SDS011;5599;52.210;21.046;2023-01-09T09:18:19;16.93;;;15.17;;
11090;SDS011;5599;52.210;21.046;2023-01-09T09:20:48;18.80;;;15.80;;
11090;SDS011;5599;52.210;21.046;2023-01-09T09:23:18;18.70;;;16.80;;
11090;SDS011;5599;52.210;21.046;2023-01-09T09:25:49;19.33;;;16.40;;
11090;SDS011;5599;52.210;21.046;2023-01-09T09:28:19;19.37;;;15.63;;
11090;SDS011;5599;52.210;21.046;2023-01-09T09:30:49;18.67;;;16.07;;
11090;SDS011;5599;52.210;21.046;2023-01-09T09:33:19;17.80;;;15.90;;
11090;SDS011;5599;52.210;21.046;2023-01-09T09:35:48;17.37;;;15.57;;
11090;SDS011;5599;52.210;21.046;2023-01-09T09:38:18;18.50;;;15.57;;
11090;SDS011;5599;52.210;21.046;2023-01-09T09:40:57;17.93;;;15.50;;
11090;SDS011;5599;52.210;21.046;2023-01-09T09:44:05;17.37;;;15.47;;
11090;SDS011;5599;52.210;21.046;2023-01-09T09:47:04;18.70;;;15.47;;
11090;SDS011;5599;52.210;21.046;2023-01-09T09:49:41;18.03;;;15.43;;
11090;SDS011;5599;52.210;21.046;2023-01-09T09:52:22;18.13;;;15.33;;
11090;SDS011;5599;52.210;21.046;2023-01-09T09:54:59;17.70;;;14.63;;
11090;SDS011;5599;52.210;21.046;2023-01-09T09:57:35;18.07;;;14.90;;
11090;SDS011;5599;52.210;21.046;2023-01-09T10:00:09;17.43;;;15.63;;
11090;SDS011;5599;52.210;21.046;2023-01-09T10:02:45;17.30;;;15.57;;
11090;SDS011;5599;52.210;21.046;2023-01-09T10:05:19;17.50;;;15.63;;
11090;SDS011;5599;52.210;21.046;2023-01-09T10:07:53;17.20;;;15.40;;
11090;SDS011;5599;52.210;21.046;2023-01-09T10:10:41;19.00;;;15.73;;
11090;SDS011;5599;52.210;21.046;2023-01-09T10:13:15;17.60;;;15.20;;
11090;SDS011;5599;52.210;21.046;2023-01-09T10:16:06;19.27;;;15.67;;
11090;SDS011;5599;52.210;21.046;2023-01-09T10:18:50;20.17;;;16.00;;
11090;SDS011;5599;52.210;21.046;2023-01-09T10:21:26;18.20;;;15.97;;
11090;SDS011;5599;52.210;21.046;2023-01-09T10:24:07;17.73;;;15.07;;
11090;SDS011;5599;52.210;21.046;2023-01-09T10:26:47;19.00;;;15.60;;
11090;SDS011;5599;52.210;21.046;2023-01-09T10:29:33;19.77;;;16.67;;
11090;SDS011;5599;52.210;21.046;2023-01-09T10:32:24;17.60;;;15.37;;
11090;SDS011;5599;52.210;21.046;2023-01-09T10:35:05;18.03;;;16.07;;
11090;SDS011;5599;52.210;21.046;2023-01-09T10:37:53;17.93;;;15.13;;
11090;SDS011;5599;52.210;21.046;2023-01-09T10:40:26;18.57;;;16.63;;
11090;SDS011;5599;52.210;21.046;2023-01-09T10:42:59;17.53;;;15.67;;
11090;SDS011;5599;52.210;21.046;2023-01-09T10:45:33;18.00;;;16.10;;
11090;SDS011;5599;52.210;21.046;2023-01-09T10:48:13;19.23;;;16.80;;
11090;SDS011;5599;52.210;21.046;2023-01-09T10:50:48;18.47;;;16.43;;
11090;SDS011;5599;52.210;21.046;2023-01-09T10:53:19;20.87;;;16.90;;
11090;SDS011;5599;52.210;21.046;2023-01-09T10:55:50;18.73;;;16.40;;
11090;SDS011;5599;52.210;21.046;2023-01-09T10:58:24;21.90;;;17.80;;
11090;SDS011;5599;52.210;21.046;2023-01-09T11:00:54;21.63;;;16.97;;
11090;SDS011;5599;52.210;21.046;2023-01-09T11:03:28;18.07;;;16.13;;
11090;SDS011;5599;52.210;21.046;2023-01-09T11:05:58;22.83;;;17.27;;
11090;SDS011;5599;52.210;21.046;2023-01-09T11:08:29;19.47;;;17.27;;
11090;SDS011;5599;52.210;21.046;2023-01-09T11:11:02;23.60;;;18.63;;
11090;SDS011;5599;52.210;21.046;2023-01-09T11:13:32;22.53;;;18.43;;
11090;SDS011;5599;52.210;21.046;2023-01-09T11:16:04;20.60;;;18.37;;
11090;SDS011;5599;52.210;21.046;2023-01-09T11:18:38;20.50;;;18.40;;
11090;SDS011;5599;52.210;21.046;2023-01-09T11:24:27;20.33;;;18.10;;
11090;SDS011;5599;52.210;21.046;2023-01-09T11:30:04;21.07;;;18.93;;
11090;SDS011;5599;52.210;21.046;2023-01-09T11:32:46;20.93;;;18.73;;
11090;SDS011;5599;52.210;21.046;2023-01-09T11:35:18;19.40;;;17.40;;
11090;SDS011;5599;52.210;21.046;2023-01-09T11:37:56;20.37;;;18.20;;
11090;SDS011;5599;52.210;21.046;2023-01-09T11:40:31;20.43;;;18.33;;
11090;SDS011;5599;52.210;21.046;2023-01-09T11:43:13;20.30;;;18.10;;
11090;SDS011;5599;52.210;21.046;2023-01-09T11:45:46;20.67;;;18.23;;
11090;SDS011;5599;52.210;21.046;2023-01-09T11:48:37;21.80;;;18.57;;
11090;SDS011;5599;52.210;21.046;2023-01-09T11:51:17;21.67;;;18.90;;
11090;SDS011;5599;52.210;21.046;2023-01-09T11:53:56;22.93;;;19.83;;
11090;SDS011;5599;52.210;21.046;2023-01-09T11:56:34;23.33;;;17.93;;
11090;SDS011;5599;52.210;21.046;2023-01-09T11:59:07;20.87;;;18.67;;
11090;SDS011;5599;52.210;21.046;2023-01-09T12:01:43;21.63;;;19.33;;
11090;SDS011;5599;52.210;21.046;2023-01-09T12:04:23;21.27;;;18.90;;
11090;SDS011;5599;52.210;21.046;2023-01-09T12:07:13;20.90;;;18.70;;
11090;SDS011;5599;52.210;21.046;2023-01-09T12:09:58;21.13;;;18.20;;
11090;SDS011;5599;52.210;21.046;2023-01-09T12:12:37;22.83;;;18.07;;
11090;SDS011;5599;52.210;21.046;2023-01-09T12:15:17;21.73;;;19.17;;
11090;SDS011;5599;52.210;21.046;2023-01-09T12:17:56;23.07;;;19.33;;
11090;SDS011;5599;52.210;21.046;2023-01-09T12:20:53;20.53;;;18.33;;
11090;SDS011;5599;52.210;21.046;2023-01-09T12:23:36;21.93;;;19.33;;
11090;SDS011;5599;52.210;21.046;2023-01-09T12:26:16;24.27;;;19.67;;
11090;SDS011;5599;52.210;21.046;2023-01-09T12:32:00;21.47;;;19.17;;
11090;SDS011;5599;52.210;21.046;2023-01-09T12:34:44;23.43;;;20.87;;
11090;SDS011;5599;52.210;21.046;2023-01-09T12:37:35;22.40;;;19.93;;
11090;SDS011;5599;52.210;21.046;2023-01-09T12:40:20;21.07;;;18.73;;
11090;SDS011;5599;52.210;21.046;2023-01-09T12:43:01;22.10;;;19.67;;
11090;SDS011;5599;52.210;21.046;2023-01-09T12:45:42;20.60;;;18.40;;
11090;SDS011;5599;52.210;21.046;2023-01-09T12:48:25;22.20;;;19.90;;
11090;SDS011;5599;52.210;21.046;2023-01-09T12:51:08;24.47;;;19.23;;
11090;SDS011;5599;52.210;21.046;2023-01-09T12:53:49;20.13;;;18.07;;
11090;SDS011;5599;52.210;21.046;2023-01-09T12:56:25;19.97;;;17.87;;
11090;SDS011;5599;52.210;21.046;2023-01-09T12:59:00;20.97;;;18.30;;
11090;SDS011;5599;52.210;21.046;2023-01-09T13:01:48;20.73;;;18.43;;
11090;SDS011;5599;52.210;21.046;2023-01-09T13:04:18;22.33;;;18.73;;
11090;SDS011;5599;52.210;21.046;2023-01-09T13:06:52;21.60;;;19.30;;
11090;SDS011;5599;52.210;21.046;2023-01-09T13:09:28;20.37;;;18.27;;
11090;SDS011;5599;52.210;21.046;2023-01-09T13:12:09;19.73;;;17.63;;
11090;SDS011;5599;52.210;21.046;2023-01-09T13:14:46;21.07;;;18.87;;
11090;SDS011;5599;52.210;21.046;2023-01-09T13:17:21;20.63;;;18.40;;
11090;SDS011;5599;52.210;21.046;2023-01-09T13:19:54;21.93;;;18.23;;
11090;SDS011;5599;52.210;21.046;2023-01-09T13:22:23;20.77;;;18.60;;
11090;SDS011;5599;52.210;21.046;2023-01-09T13:25:06;21.80;;;19.33;;
11090;SDS011;5599;52.210;21.046;2023-01-09T13:27:50;22.33;;;19.57;;
11090;SDS011;5599;52.210;21.046;2023-01-09T13:30:32;20.73;;;18.63;;
11090;SDS011;5599;52.210;21.046;2023-01-09T13:33:13;25.00;;;22.30;;
11090;SDS011;5599;52.210;21.046;2023-01-09T13:35:46;22.37;;;20.07;;
11090;SDS011;5599;52.210;21.046;2023-01-09T13:38:21;21.63;;;19.00;;
11090;SDS011;5599;52.210;21.046;2023-01-09T13:41:02;21.87;;;19.63;;
11090;SDS011;5599;52.210;21.046;2023-01-09T13:43:54;21.47;;;18.63;;
11090;SDS011;5599;52.210;21.046;2023-01-09T13:46:37;26.02;;;23.42;;
11090;SDS011;5599;52.210;21.046;2023-01-09T13:51:58;24.03;;;21.50;;
11090;SDS011;5599;52.210;21.046;2023-01-09T13:58:15;21.70;;;19.40;;
11090;SDS011;5599;52.210;21.046;2023-01-09T14:00:51;21.57;;;19.27;;
11090;SDS011;5599;52.210;21.046;2023-01-09T14:03:27;22.80;;;18.37;;
11090;SDS011;5599;52.210;21.046;2023-01-09T14:06:08;21.40;;;19.20;;
11090;SDS011;5599;52.210;21.046;2023-01-09T14:08:46;20.60;;;18.40;;
11090;SDS011;5599;52.210;21.046;2023-01-09T14:11:18;20.00;;;17.90;;
11090;SDS011;5599;52.210;21.046;2023-01-09T14:16:50;20.23;;;18.10;;
11090;SDS011;5599;52.210;21.046;2023-01-09T14:19:25;21.77;;;19.50;;
11090;SDS011;5599;52.210;21.046;2023-01-09T14:22:00;21.03;;;18.90;;
11090;SDS011;5599;52.210;21.046;2023-01-09T14:24:32;23.73;;;21.23;;
11090;SDS011;5599;52.210;21.046;2023-01-09T14:30:16;19.80;;;17.93;;
11090;SDS011;5599;52.210;21.046;2023-01-09T14:32:57;23.43;;;19.20;;
11090;SDS011;5599;52.210;21.046;2023-01-09T14:35:42;21.10;;;19.00;;
11090;SDS011;5599;52.210;21.046;2023-01-09T14:38:26;21.43;;;19.17;;
11090;SDS011;5599;52.210;21.046;2023-01-09T14:40:59;20.60;;;18.47;;
11090;SDS011;5599;52.210;21.046;2023-01-09T14:43:37;22.10;;;19.70;;
11090;SDS011;5599;52.210;21.046;2023-01-09T14:46:13;21.93;;;19.63;;
11090;SDS011;5599;52.210;21.046;2023-01-09T14:48:57;22.67;;;20.17;;
11090;SDS011;5599;52.210;21.046;2023-01-09T14:51:34;20.33;;;18.27;;
11090;SDS011;5599;52.210;21.046;2023-01-09T14:54:11;20.10;;;17.67;;
11090;SDS011;5599;52.210;21.046;2023-01-09T14:56:48;21.50;;;19.27;;
11090;SDS011;5599;52.210;21.046;2023-01-09T14:59:17;24.73;;;19.37;;
11090;SDS011;5599;52.210;21.046;2023-01-09T15:01:47;20.73;;;18.53;;
11090;SDS011;5599;52.210;21.046;2023-01-09T15:04:24;21.33;;;18.20;;
11090;SDS011;5599;52.210;21.046;2023-01-09T15:06:57;21.13;;;18.90;;
11090;SDS011;5599;52.210;21.046;2023-01-09T15:09:27;21.20;;;19.03;;
11090;SDS011;5599;52.210;21.046;2023-01-09T15:12:02;21.33;;;19.23;;
11090;SDS011;5599;52.210;21.046;2023-01-09T15:14:35;21.23;;;18.40;;
11090;SDS011;5599;52.210;21.046;2023-01-09T15:17:12;21.33;;;18.47;;
11090;SDS011;5599;52.210;21.046;2023-01-09T15:19:48;20.07;;;17.97;;
11090;SDS011;5599;52.210;21.046;2023-01-09T15:22:22;20.50;;;18.30;;
11090;SDS011;5599;52.210;21.046;2023-01-09T15:24:55;20.43;;;18.33;;
11090;SDS011;5599;52.210;21.046;2023-01-09T15:27:25;19.83;;;17.83;;